sensor_id;sensor_type;location;lat;lon;timestamp;P1;durP1;ratioP1;P2;durP2;ratioP2
78324;SDS011;67584;51.400;6.692;2023-06-10T00:01:29;7.55;;;6.85;;
78324;SDS011;67584;51.400;6.692;2023-06-10T00:03:55;7.38;;;6.68;;
78324;SDS011;67584;51.400;6.692;2023-06-10T00:06:21;6.72;;;6.13;;
78324;SDS011;67584;51.400;6.692;2023-06-10T00:08:49;8.77;;;6.57;;
78324;SDS011;67584;51.400;6.692;2023-06-10T00:11:15;7.55;;;6.85;;
78324;SDS011;67584;51.400;6.692;2023-06-10T00:13:41;7.95;;;7.15;;
78324;SDS011;67584;51.400;6.692;2023-06-10T00:16:07;7.57;;;6.85;;
78324;SDS011;67584;51.400;6.692;2023-06-10T00:18:32;6.85;;;6.28;;
78324;SDS011;67584;51.400;6.692;2023-06-10T00:21:04;7.18;;;6.45;;
78324;SDS011;67584;51.400;6.692;2023-06-10T00:23:33;7.30;;;6.60;;
78324;SDS011;67584;51.400;6.692;2023-06-10T00:26:03;7.65;;;6.82;;
78324;SDS011;67584;51.400;6.692;2023-06-10T00:28:29;7.65;;;7.05;;
78324;SDS011;67584;51.400;6.692;2023-06-10T00:30:55;6.82;;;6.13;;
78324;SDS011;67584;51.400;6.692;2023-06-10T00:33:22;7.50;;;6.78;;
78324;SDS011;67584;51.400;6.692;2023-06-10T00:35:48;7.22;;;6.53;;
78324;SDS011;67584;51.400;6.692;2023-06-10T00:38:13;7.57;;;6.88;;
78324;SDS011;67584;51.400;6.692;2023-06-10T00:40:42;7.80;;;7.00;;
78324;SDS011;67584;51.400;6.692;2023-06-10T00:43:08;7.75;;;6.78;;
78324;SDS011;67584;51.400;6.692;2023-06-10T00:45:34;7.20;;;6.60;;
78324;SDS011;67584;51.400;6.692;2023-06-10T00:48:00;7.45;;;6.75;;
78324;SDS011;67584;51.400;6.692;2023-06-10T00:50:27;7.57;;;6.85;;
78324;SDS011;67584;51.400;6.692;2023-06-10T00:52:53;8.27;;;7.35;;
78324;SDS011;67584;51.400;6.692;2023-06-10T00:55:20;8.00;;;6.80;;
78324;SDS011;67584;51.400;6.692;2023-06-10T00:57:46;8.15;;;7.35;;
78324;SDS011;67584;51.400;6.692;2023-06-10T01:00:13;7.60;;;6.80;;
78324;SDS011;67584;51.400;6.692;2023-06-10T01:02:40;7.57;;;6.88;;
78324;SDS011;67584;51.400;6.692;2023-06-10T01:05:07;7.80;;;7.10;;
78324;SDS011;67584;51.400;6.692;2023-06-10T01:07:37;7.50;;;6.70;;
78324;SDS011;67584;51.400;6.692;2023-06-10T01:10:20;8.13;;;7.32;;
78324;SDS011;67584;51.400;6.692;2023-06-10T01:12:59;7.63;;;6.90;;
78324;SDS011;67584;51.400;6.692;2023-06-10T01:15:30;7.78;;;7.03;;
78324;SDS011;67584;51.400;6.692;2023-06-10T01:18:00;8.60;;;7.32;;
78324;SDS011;67584;51.400;6.692;2023-06-10T01:20:29;7.60;;;6.90;;
78324;SDS011;67584;51.400;6.692;2023-06-10T01:23:00;8.63;;;7.43;;
78324;SDS011;67584;51.400;6.692;2023-06-10T01:25:28;7.80;;;7.00;;
78324;SDS011;67584;51.400;6.692;2023-06-10T01:28:12;8.00;;;7.30;;
78324;SDS011;67584;51.400;6.692;2023-06-10T01:33:59;8.50;;;7.60;;
78324;SDS011;67584;51.400;6.692;2023-06-10T01:36:27;8.50;;;7.32;;
78324;SDS011;67584;51.400;6.692;2023-06-10T01:38:54;9.50;;;7.95;;
78324;SDS011;67584;51.400;6.692;2023-06-10T01:41:21;8.00;;;7.30;;
78324;SDS011;67584;51.400;6.692;2023-06-10T01:43:48;8.27;;;7.47;;
78324;SDS011;67584;51.400;6.692;2023-06-10T01:46:14;8.63;;;7.10;;
78324;SDS011;67584;51.400;6.692;2023-06-10T01:48:41;8.48;;;7.28;;
78324;SDS011;67584;51.400;6.692;2023-06-10T01:51:08;8.02;;;7.22;;
78324;SDS011;67584;51.400;6.692;2023-06-10T01:53:35;8.70;;;7.80;;
78324;SDS011;67584;51.400;6.692;2023-06-10T01:56:00;9.70;;;8.77;;
78324;SDS011;67584;51.400;6.692;2023-06-10T01:58:27;8.85;;;7.82;;
78324;SDS011;67584;51.400;6.692;2023-06-10T02:00:54;8.15;;;7.40;;
78324;SDS011;67584;51.400;6.692;2023-06-10T02:03:20;7.97;;;7.15;;
78324;SDS011;67584;51.400;6.692;2023-06-10T02:05:45;8.80;;;7.47;;
78324;SDS011;67584;51.400;6.692;2023-06-10T02:08:11;7.85;;;7.13;;
78324;SDS011;67584;51.400;6.692;2023-06-10T02:10:37;9.85;;;7.57;;
78324;SDS011;67584;51.400;6.692;2023-06-10T02:13:03;10.88;;;8.02;;
78324;SDS011;67584;51.400;6.692;2023-06-10T02:15:28;8.05;;;7.32;;
78324;SDS011;67584;51.400;6.692;2023-06-10T02:17:54;8.88;;;7.97;;
78324;SDS011;67584;51.400;6.692;2023-06-10T02:20:21;9.18;;;7.50;;
78324;SDS011;67584;51.400;6.692;2023-06-10T02:22:47;9.00;;;8.20;;
78324;SDS011;67584;51.400;6.692;2023-06-10T02:25:13;9.70;;;8.60;;
78324;SDS011;67584;51.400;6.692;2023-06-10T02:27:38;8.57;;;7.78;;
78324;SDS011;67584;51.400;6.692;2023-06-10T02:30:04;8.32;;;7.53;;
78324;SDS011;67584;51.400;6.692;2023-06-10T02:32:34;7.70;;;6.97;;
78324;SDS011;67584;51.400;6.692;2023-06-10T02:34:59;8.18;;;7.30;;
78324;SDS011;67584;51.400;6.692;2023-06-10T02:37:26;8.05;;;7.18;;
78324;SDS011;67584;51.400;6.692;2023-06-10T02:39:51;9.25;;;8.15;;
78324;SDS011;67584;51.400;6.692;2023-06-10T02:42:17;8.50;;;7.68;;
78324;SDS011;67584;51.400;6.692;2023-06-10T02:44:43;10.40;;;8.25;;
78324;SDS011;67584;51.400;6.692;2023-06-10T02:47:13;9.60;;;7.80;;
78324;SDS011;67584;51.400;6.692;2023-06-10T02:49:39;8.38;;;7.55;;
78324;SDS011;67584;51.400;6.692;2023-06-10T02:52:05;10.70;;;8.10;;
78324;SDS011;67584;51.400;6.692;2023-06-10T02:54:32;8.48;;;7.63;;
78324;SDS011;67584;51.400;6.692;2023-06-10T02:56:58;9.25;;;7.97;;
78324;SDS011;67584;51.400;6.692;2023-06-10T02:59:26;8.90;;;8.00;;
78324;SDS011;67584;51.400;6.692;2023-06-10T03:01:53;8.55;;;7.75;;
78324;SDS011;67584;51.400;6.692;2023-06-10T03:04:20;9.27;;;8.05;;
78324;SDS011;67584;51.400;6.692;2023-06-10T03:06:56;7.57;;;6.88;;
78324;SDS011;67584;51.400;6.692;2023-06-10T03:09:27;11.15;;;7.28;;
78324;SDS011;67584;51.400;6.692;2023-06-10T03:11:56;10.23;;;7.95;;
78324;SDS011;67584;51.400;6.692;2023-06-10T03:14:22;9.43;;;8.18;;
78324;SDS011;67584;51.400;6.692;2023-06-10T03:16:50;9.07;;;8.15;;
78324;SDS011;67584;51.400;6.692;2023-06-10T03:19:16;8.88;;;7.97;;
78324;SDS011;67584;51.400;6.692;2023-06-10T03:21:49;10.18;;;7.85;;
78324;SDS011;67584;51.400;6.692;2023-06-10T03:24:19;9.25;;;8.13;;
78324;SDS011;67584;51.400;6.692;2023-06-10T03:26:45;9.70;;;8.05;;
78324;SDS011;67584;51.400;6.692;2023-06-10T03:29:11;9.85;;;8.88;;
78324;SDS011;67584;51.400;6.692;2023-06-10T03:31:37;8.95;;;8.05;;
78324;SDS011;67584;51.400;6.692;2023-06-10T03:34:05;9.25;;;8.15;;
78324;SDS011;67584;51.400;6.692;2023-06-10T03:36:31;9.40;;;8.40;;
78324;SDS011;67584;51.400;6.692;2023-06-10T03:38:57;8.52;;;7.82;;
78324;SDS011;67584;51.400;6.692;2023-06-10T03:41:23;9.07;;;7.95;;
78324;SDS011;67584;51.400;6.692;2023-06-10T03:43:50;10.80;;;8.82;;
78324;SDS011;67584;51.400;6.692;2023-06-10T03:46:16;8.70;;;7.80;;
78324;SDS011;67584;51.400;6.692;2023-06-10T03:48:43;9.40;;;8.57;;
78324;SDS011;67584;51.400;6.692;2023-06-10T03:51:09;9.90;;;8.70;;
78324;SDS011;67584;51.400;6.692;2023-06-10T03:53:34;9.30;;;8.35;;
78324;SDS011;67584;51.400;6.692;2023-06-10T03:56:00;10.35;;;9.27;;
78324;SDS011;67584;51.400;6.692;2023-06-10T03:58:27;9.48;;;8.57;;
78324;SDS011;67584;51.400;6.692;2023-06-10T04:00:53;9.85;;;8.95;;
78324;SDS011;67584;51.400;6.692;2023-06-10T04:03:28;9.30;;;8.40;;
78324;SDS011;67584;51.400;6.692;2023-06-10T04:05:54;9.85;;;8.90;;
78324;SDS011;67584;51.400;6.692;2023-06-10T04:08:19;10.93;;;8.55;;
78324;SDS011;67584;51.400;6.692;2023-06-10T04:10:45;10.38;;;8.88;;
78324;SDS011;67584;51.400;6.692;2023-06-10T04:13:11;9.65;;;8.40;;
78324;SDS011;67584;51.400;6.692;2023-06-10T04:15:44;10.50;;;9.40;;
78324;SDS011;67584;51.400;6.692;2023-06-10T04:18:14;10.68;;;9.35;;
78324;SDS011;67584;51.400;6.692;2023-06-10T04:20:42;10.07;;;9.02;;
78324;SDS011;67584;51.400;6.692;2023-06-10T04:23:10;11.85;;;9.55;;
78324;SDS011;67584;51.400;6.692;2023-06-10T04:25:36;11.65;;;9.52;;
78324;SDS011;67584;51.400;6.692;2023-06-10T04:28:02;10.57;;;9.48;;
78324;SDS011;67584;51.400;6.692;2023-06-10T04:30:28;10.32;;;9.35;;
78324;SDS011;67584;51.400;6.692;2023-06-10T04:32:55;12.07;;;10.10;;
78324;SDS011;67584;51.400;6.692;2023-06-10T04:35:21;10.57;;;9.48;;
78324;SDS011;67584;51.400;6.692;2023-06-10T04:37:48;13.55;;;10.20;;
78324;SDS011;67584;51.400;6.692;2023-06-10T04:40:14;11.13;;;9.88;;
78324;SDS011;67584;51.400;6.692;2023-06-10T04:42:41;10.45;;;9.35;;
78324;SDS011;67584;51.400;6.692;2023-06-10T04:45:07;12.00;;;10.20;;
78324;SDS011;67584;51.400;6.692;2023-06-10T04:47:34;10.95;;;9.50;;
78324;SDS011;67584;51.400;6.692;2023-06-10T04:50:00;10.48;;;9.45;;
78324;SDS011;67584;51.400;6.692;2023-06-10T04:52:28;12.48;;;9.85;;
78324;SDS011;67584;51.400;6.692;2023-06-10T04:54:54;10.25;;;8.90;;
78324;SDS011;67584;51.400;6.692;2023-06-10T04:57:20;10.88;;;9.88;;
78324;SDS011;67584;51.400;6.692;2023-06-10T04:59:46;12.27;;;9.90;;
78324;SDS011;67584;51.400;6.692;2023-06-10T05:02:12;11.00;;;9.77;;
78324;SDS011;67584;51.400;6.692;2023-06-10T05:04:38;10.90;;;9.77;;
78324;SDS011;67584;51.400;6.692;2023-06-10T05:07:04;10.07;;;9.02;;
78324;SDS011;67584;51.400;6.692;2023-06-10T05:09:30;12.13;;;10.35;;
78324;SDS011;67584;51.400;6.692;2023-06-10T05:11:56;11.32;;;9.75;;
78324;SDS011;67584;51.400;6.692;2023-06-10T05:14:22;11.90;;;10.57;;
78324;SDS011;67584;51.400;6.692;2023-06-10T05:16:48;11.63;;;10.43;;
78324;SDS011;67584;51.400;6.692;2023-06-10T05:19:13;11.35;;;9.52;;
78324;SDS011;67584;51.400;6.692;2023-06-10T05:21:41;14.25;;;10.32;;
78324;SDS011;67584;51.400;6.692;2023-06-10T05:24:07;12.27;;;10.65;;
78324;SDS011;67584;51.400;6.692;2023-06-10T05:26:33;10.70;;;9.38;;
78324;SDS011;67584;51.400;6.692;2023-06-10T05:29:02;11.20;;;9.45;;
78324;SDS011;67584;51.400;6.692;2023-06-10T05:31:28;10.30;;;8.88;;
78324;SDS011;67584;51.400;6.692;2023-06-10T05:33:54;10.45;;;9.40;;
78324;SDS011;67584;51.400;6.692;2023-06-10T05:36:19;10.95;;;9.30;;
78324;SDS011;67584;51.400;6.692;2023-06-10T05:38:45;11.75;;;8.70;;
78324;SDS011;67584;51.400;6.692;2023-06-10T05:41:11;10.38;;;9.15;;
78324;SDS011;67584;51.400;6.692;2023-06-10T05:43:37;10.23;;;9.07;;
78324;SDS011;67584;51.400;6.692;2023-06-10T05:46:02;9.70;;;8.70;;
78324;SDS011;67584;51.400;6.692;2023-06-10T05:48:28;12.52;;;9.63;;
78324;SDS011;67584;51.400;6.692;2023-06-10T05:50:54;9.93;;;8.93;;
78324;SDS011;67584;51.400;6.692;2023-06-10T05:53:19;10.75;;;9.65;;
78324;SDS011;67584;51.400;6.692;2023-06-10T05:55:46;10.48;;;9.38;;
78324;SDS011;67584;51.400;6.692;2023-06-10T05:58:12;11.20;;;9.13;;
78324;SDS011;67584;51.400;6.692;2023-06-10T06:00:39;9.30;;;8.27;;
78324;SDS011;67584;51.400;6.692;2023-06-10T06:03:08;9.77;;;8.77;;
78324;SDS011;67584;51.400;6.692;2023-06-10T06:05:34;10.48;;;9.38;;
78324;SDS011;67584;51.400;6.692;2023-06-10T06:08:02;11.07;;;8.48;;
78324;SDS011;67584;51.400;6.692;2023-06-10T06:10:28;9.98;;;9.00;;
78324;SDS011;67584;51.400;6.692;2023-06-10T06:12:55;8.85;;;8.05;;
78324;SDS011;67584;51.400;6.692;2023-06-10T06:15:20;10.65;;;8.30;;
78324;SDS011;67584;51.400;6.692;2023-06-10T06:17:46;9.50;;;8.38;;
78324;SDS011;67584;51.400;6.692;2023-06-10T06:20:12;9.57;;;7.97;;
78324;SDS011;67584;51.400;6.692;2023-06-10T06:22:37;9.80;;;8.90;;
78324;SDS011;67584;51.400;6.692;2023-06-10T06:25:03;8.15;;;7.32;;
78324;SDS011;67584;51.400;6.692;2023-06-10T06:27:30;9.25;;;7.95;;
78324;SDS011;67584;51.400;6.692;2023-06-10T06:29:56;9.93;;;7.95;;
78324;SDS011;67584;51.400;6.692;2023-06-10T06:32:21;9.15;;;8.23;;
78324;SDS011;67584;51.400;6.692;2023-06-10T06:34:49;8.65;;;7.75;;
78324;SDS011;67584;51.400;6.692;2023-06-10T06:37:20;9.40;;;7.93;;
78324;SDS011;67584;51.400;6.692;2023-06-10T06:39:47;7.93;;;7.22;;
78324;SDS011;67584;51.400;6.692;2023-06-10T06:42:12;10.88;;;7.53;;
78324;SDS011;67584;51.400;6.692;2023-06-10T06:44:57;8.60;;;7.80;;
78324;SDS011;67584;51.400;6.692;2023-06-10T06:47:23;8.60;;;7.47;;
78324;SDS011;67584;51.400;6.692;2023-06-10T06:49:48;9.68;;;7.55;;
78324;SDS011;67584;51.400;6.692;2023-06-10T06:52:15;8.43;;;7.45;;
78324;SDS011;67584;51.400;6.692;2023-06-10T06:54:40;8.57;;;7.57;;
78324;SDS011;67584;51.400;6.692;2023-06-10T06:57:06;8.73;;;7.43;;
78324;SDS011;67584;51.400;6.692;2023-06-10T06:59:32;7.40;;;6.70;;
78324;SDS011;67584;51.400;6.692;2023-06-10T07:01:58;8.35;;;7.15;;
78324;SDS011;67584;51.400;6.692;2023-06-10T07:04:24;8.38;;;7.38;;
78324;SDS011;67584;51.400;6.692;2023-06-10T07:06:50;8.32;;;7.20;;
78324;SDS011;67584;51.400;6.692;2023-06-10T07:09:15;8.57;;;7.60;;
78324;SDS011;67584;51.400;6.692;2023-06-10T07:11:42;7.25;;;6.50;;
78324;SDS011;67584;51.400;6.692;2023-06-10T07:14:07;7.57;;;6.82;;
78324;SDS011;67584;51.400;6.692;2023-06-10T07:16:33;8.07;;;6.90;;
78324;SDS011;67584;51.400;6.692;2023-06-10T07:18:59;8.95;;;6.72;;
78324;SDS011;67584;51.400;6.692;2023-06-10T07:21:25;8.20;;;7.35;;
78324;SDS011;67584;51.400;6.692;2023-06-10T07:23:51;10.38;;;6.55;;
78324;SDS011;67584;51.400;6.692;2023-06-10T07:26:18;6.55;;;5.93;;
78324;SDS011;67584;51.400;6.692;2023-06-10T07:28:44;7.85;;;6.70;;
78324;SDS011;67584;51.400;6.692;2023-06-10T07:31:10;8.70;;;7.15;;
78324;SDS011;67584;51.400;6.692;2023-06-10T07:33:37;7.53;;;6.80;;
78324;SDS011;67584;51.400;6.692;2023-06-10T07:36:04;10.40;;;7.18;;
78324;SDS011;67584;51.400;6.692;2023-06-10T07:38:30;9.70;;;7.05;;
78324;SDS011;67584;51.400;6.692;2023-06-10T07:40:56;11.32;;;6.97;;
78324;SDS011;67584;51.400;6.692;2023-06-10T07:43:22;8.18;;;7.38;;
78324;SDS011;67584;51.400;6.692;2023-06-10T07:45:48;6.57;;;5.93;;
78324;SDS011;67584;51.400;6.692;2023-06-10T07:48:14;7.43;;;6.32;;
78324;SDS011;67584;51.400;6.692;2023-06-10T07:50:39;8.70;;;6.68;;
78324;SDS011;67584;51.400;6.692;2023-06-10T07:53:05;7.50;;;6.70;;
78324;SDS011;67584;51.400;6.692;2023-06-10T07:55:31;7.68;;;6.05;;
78324;SDS011;67584;51.400;6.692;2023-06-10T07:57:57;9.43;;;7.45;;
78324;SDS011;67584;51.400;6.692;2023-06-10T08:00:23;8.48;;;6.47;;
78324;SDS011;67584;51.400;6.692;2023-06-10T08:02:48;8.60;;;6.28;;
78324;SDS011;67584;51.400;6.692;2023-06-10T08:05:15;8.07;;;5.90;;
78324;SDS011;67584;51.400;6.692;2023-06-10T08:07:41;7.40;;;6.10;;
78324;SDS011;67584;51.400;6.692;2023-06-10T08:10:08;8.48;;;6.32;;
78324;SDS011;67584;51.400;6.692;2023-06-10T08:12:34;6.80;;;6.03;;
78324;SDS011;67584;51.400;6.692;2023-06-10T08:15:00;7.07;;;5.90;;
78324;SDS011;67584;51.400;6.692;2023-06-10T08:17:26;9.43;;;7.03;;
78324;SDS011;67584;51.400;6.692;2023-06-10T08:19:52;6.63;;;5.90;;
78324;SDS011;67584;51.400;6.692;2023-06-10T08:22:17;8.48;;;6.85;;
78324;SDS011;67584;51.400;6.692;2023-06-10T08:24:43;6.95;;;6.25;;
78324;SDS011;67584;51.400;6.692;2023-06-10T08:27:09;7.30;;;6.25;;
78324;SDS011;67584;51.400;6.692;2023-06-10T08:29:35;6.40;;;5.80;;
78324;SDS011;67584;51.400;6.692;2023-06-10T08:32:01;8.63;;;6.82;;
78324;SDS011;67584;51.400;6.692;2023-06-10T08:34:27;7.93;;;6.43;;
78324;SDS011;67584;51.400;6.692;2023-06-10T08:36:53;7.90;;;6.40;;
78324;SDS011;67584;51.400;6.692;2023-06-10T08:39:20;7.65;;;6.82;;
78324;SDS011;67584;51.400;6.692;2023-06-10T08:41:51;8.50;;;6.40;;
78324;SDS011;67584;51.400;6.692;2023-06-10T08:44:31;7.03;;;6.43;;
78324;SDS011;67584;51.400;6.692;2023-06-10T08:47:01;9.48;;;6.80;;
78324;SDS011;67584;51.400;6.692;2023-06-10T08:49:34;8.00;;;6.18;;
78324;SDS011;67584;51.400;6.692;2023-06-10T08:52:06;7.45;;;6.18;;
78324;SDS011;67584;51.400;6.692;2023-06-10T08:54:33;7.75;;;6.70;;
78324;SDS011;67584;51.400;6.692;2023-06-10T08:57:03;8.68;;;7.05;;
78324;SDS011;67584;51.400;6.692;2023-06-10T08:59:31;8.60;;;6.97;;
78324;SDS011;67584;51.400;6.692;2023-06-10T09:01:57;8.45;;;6.47;;
78324;SDS011;67584;51.400;6.692;2023-06-10T09:04:24;9.85;;;7.65;;
78324;SDS011;67584;51.400;6.692;2023-06-10T09:06:50;7.25;;;6.53;;
78324;SDS011;67584;51.400;6.692;2023-06-10T09:09:17;7.28;;;6.55;;
78324;SDS011;67584;51.400;6.692;2023-06-10T09:11:45;10.20;;;6.57;;
78324;SDS011;67584;51.400;6.692;2023-06-10T09:14:10;8.35;;;6.53;;
78324;SDS011;67584;51.400;6.692;2023-06-10T09:16:38;7.35;;;6.65;;
78324;SDS011;67584;51.400;6.692;2023-06-10T09:19:04;8.13;;;7.07;;
78324;SDS011;67584;51.400;6.692;2023-06-10T09:21:33;8.25;;;6.70;;
78324;SDS011;67584;51.400;6.692;2023-06-10T09:23:59;8.05;;;7.15;;
78324;SDS011;67584;51.400;6.692;2023-06-10T09:26:28;8.65;;;7.47;;
78324;SDS011;67584;51.400;6.692;2023-06-10T09:29:03;10.60;;;7.57;;
78324;SDS011;67584;51.400;6.692;2023-06-10T09:31:30;7.97;;;6.72;;
78324;SDS011;67584;51.400;6.692;2023-06-10T09:34:09;7.72;;;6.68;;
78324;SDS011;67584;51.400;6.692;2023-06-10T09:36:37;8.23;;;6.88;;
78324;SDS011;67584;51.400;6.692;2023-06-10T09:39:04;8.10;;;6.97;;
78324;SDS011;67584;51.400;6.692;2023-06-10T09:41:33;7.57;;;6.75;;
78324;SDS011;67584;51.400;6.692;2023-06-10T09:44:00;8.48;;;7.22;;
78324;SDS011;67584;51.400;6.692;2023-06-10T09:46:30;7.38;;;6.25;;
78324;SDS011;67584;51.400;6.692;2023-06-10T09:48:59;7.80;;;7.00;;
78324;SDS011;67584;51.400;6.692;2023-06-10T09:51:25;8.15;;;6.88;;
78324;SDS011;67584;51.400;6.692;2023-06-10T09:53:51;7.57;;;6.88;;
78324;SDS011;67584;51.400;6.692;2023-06-10T09:56:18;8.43;;;7.22;;
78324;SDS011;67584;51.400;6.692;2023-06-10T09:58:44;7.80;;;7.00;;
78324;SDS011;67584;51.400;6.692;2023-06-10T10:01:12;7.50;;;6.45;;
78324;SDS011;67584;51.400;6.692;2023-06-10T10:06:12;7.30;;;6.60;;
78324;SDS011;67584;51.400;6.692;2023-06-10T10:08:38;7.57;;;6.55;;
78324;SDS011;67584;51.400;6.692;2023-06-10T10:11:04;8.45;;;7.03;;
78324;SDS011;67584;51.400;6.692;2023-06-10T10:13:30;8.40;;;7.55;;
78324;SDS011;67584;51.400;6.692;2023-06-10T10:15:59;7.80;;;7.00;;
78324;SDS011;67584;51.400;6.692;2023-06-10T10:18:31;8.00;;;6.50;;
78324;SDS011;67584;51.400;6.692;2023-06-10T10:21:01;7.47;;;6.68;;
78324;SDS011;67584;51.400;6.692;2023-06-10T10:23:33;8.80;;;6.78;;
78324;SDS011;67584;51.400;6.692;2023-06-10T10:26:04;7.82;;;7.03;;
78324;SDS011;67584;51.400;6.692;2023-06-10T10:28:42;8.60;;;6.95;;
78324;SDS011;67584;51.400;6.692;2023-06-10T10:31:16;8.43;;;7.72;;
78324;SDS011;67584;51.400;6.692;2023-06-10T10:34:00;8.98;;;7.75;;
78324;SDS011;67584;51.400;6.692;2023-06-10T10:36:29;8.15;;;7.47;;
78324;SDS011;67584;51.400;6.692;2023-06-10T10:38:56;8.10;;;7.30;;
78324;SDS011;67584;51.400;6.692;2023-06-10T10:41:24;7.75;;;7.05;;
78324;SDS011;67584;51.400;6.692;2023-06-10T10:43:51;8.63;;;6.88;;
78324;SDS011;67584;51.400;6.692;2023-06-10T10:46:18;8.07;;;7.00;;
78324;SDS011;67584;51.400;6.692;2023-06-10T10:48:44;9.20;;;6.78;;
78324;SDS011;67584;51.400;6.692;2023-06-10T10:51:10;10.35;;;7.60;;
78324;SDS011;67584;51.400;6.692;2023-06-10T10:53:37;7.50;;;6.88;;
78324;SDS011;67584;51.400;6.692;2023-06-10T10:56:07;10.48;;;7.40;;
78324;SDS011;67584;51.400;6.692;2023-06-10T10:58:38;8.32;;;7.63;;
78324;SDS011;67584;51.400;6.692;2023-06-10T11:01:09;7.75;;;6.97;;
78324;SDS011;67584;51.400;6.692;2023-06-10T11:03:41;7.45;;;6.85;;
78324;SDS011;67584;51.400;6.692;2023-06-10T11:06:13;7.60;;;6.90;;
78324;SDS011;67584;51.400;6.692;2023-06-10T11:14:07;8.55;;;7.78;;
78324;SDS011;67584;51.400;6.692;2023-06-10T11:16:41;9.10;;;7.70;;
78324;SDS011;67584;51.400;6.692;2023-06-10T11:19:08;7.60;;;6.90;;
78324;SDS011;67584;51.400;6.692;2023-06-10T11:24:25;7.95;;;7.20;;
78324;SDS011;67584;51.400;6.692;2023-06-10T11:26:51;7.90;;;7.20;;
78324;SDS011;67584;51.400;6.692;2023-06-10T11:29:17;6.82;;;6.13;;
78324;SDS011;67584;51.400;6.692;2023-06-10T11:31:45;7.70;;;7.10;;
78324;SDS011;67584;51.400;6.692;2023-06-10T11:34:15;7.88;;;7.22;;
78324;SDS011;67584;51.400;6.692;2023-06-10T11:36:48;8.50;;;7.72;;
78324;SDS011;67584;51.400;6.692;2023-06-10T11:39:14;7.78;;;6.97;;
78324;SDS011;67584;51.400;6.692;2023-06-10T11:41:40;7.82;;;7.13;;
78324;SDS011;67584;51.400;6.692;2023-06-10T11:44:10;7.75;;;7.15;;
78324;SDS011;67584;51.400;6.692;2023-06-10T11:46:37;8.43;;;7.65;;
78324;SDS011;67584;51.400;6.692;2023-06-10T11:49:04;8.10;;;7.35;;
78324;SDS011;67584;51.400;6.692;2023-06-10T11:51:37;8.27;;;7.45;;
78324;SDS011;67584;51.400;6.692;2023-06-10T11:54:05;8.52;;;7.75;;
78324;SDS011;67584;51.400;6.692;2023-06-10T11:56:33;9.07;;;8.25;;
78324;SDS011;67584;51.400;6.692;2023-06-10T11:59:00;7.65;;;7.03;;
78324;SDS011;67584;51.400;6.692;2023-06-10T12:01:33;8.45;;;7.65;;
78324;SDS011;67584;51.400;6.692;2023-06-10T12:04:06;7.22;;;6.63;;
78324;SDS011;67584;51.400;6.692;2023-06-10T12:09:33;8.85;;;7.20;;
78324;SDS011;67584;51.400;6.692;2023-06-10T12:12:02;7.80;;;7.10;;
78324;SDS011;67584;51.400;6.692;2023-06-10T12:19:48;8.02;;;7.25;;
78324;SDS011;67584;51.400;6.692;2023-06-10T12:22:14;8.57;;;7.78;;
78324;SDS011;67584;51.400;6.692;2023-06-10T12:24:59;7.72;;;7.03;;
78324;SDS011;67584;51.400;6.692;2023-06-10T12:27:27;7.93;;;7.35;;
78324;SDS011;67584;51.400;6.692;2023-06-10T12:29:55;9.10;;;8.30;;
78324;SDS011;67584;51.400;6.692;2023-06-10T12:32:34;8.68;;;7.97;;
78324;SDS011;67584;51.400;6.692;2023-06-10T12:35:03;8.25;;;7.32;;
78324;SDS011;67584;51.400;6.692;2023-06-10T12:37:30;8.10;;;7.40;;
78324;SDS011;67584;51.400;6.692;2023-06-10T12:39:59;7.75;;;7.15;;
78324;SDS011;67584;51.400;6.692;2023-06-10T12:42:27;8.48;;;7.78;;
78324;SDS011;67584;51.400;6.692;2023-06-10T12:44:53;9.05;;;8.27;;
78324;SDS011;67584;51.400;6.692;2023-06-10T12:47:20;8.52;;;7.88;;
78324;SDS011;67584;51.400;6.692;2023-06-10T12:49:53;8.23;;;7.63;;
78324;SDS011;67584;51.400;6.692;2023-06-10T12:52:19;8.27;;;7.35;;
78324;SDS011;67584;51.400;6.692;2023-06-10T12:54:45;8.15;;;7.45;;
78324;SDS011;67584;51.400;6.692;2023-06-10T12:57:10;8.73;;;7.95;;
78324;SDS011;67584;51.400;6.692;2023-06-10T12:59:36;8.65;;;7.93;;
78324;SDS011;67584;51.400;6.692;2023-06-10T13:02:02;8.25;;;7.45;;
78324;SDS011;67584;51.400;6.692;2023-06-10T13:04:28;7.88;;;7.28;;
78324;SDS011;67584;51.400;6.692;2023-06-10T13:06:54;8.85;;;7.95;;
78324;SDS011;67584;51.400;6.692;2023-06-10T13:09:19;9.18;;;8.38;;
78324;SDS011;67584;51.400;6.692;2023-06-10T13:11:45;8.05;;;7.45;;
78324;SDS011;67584;51.400;6.692;2023-06-10T13:14:10;8.25;;;7.63;;
78324;SDS011;67584;51.400;6.692;2023-06-10T13:16:36;9.18;;;8.32;;
78324;SDS011;67584;51.400;6.692;2023-06-10T13:19:03;8.75;;;8.05;;
78324;SDS011;67584;51.400;6.692;2023-06-10T13:21:30;9.05;;;8.25;;
78324;SDS011;67584;51.400;6.692;2023-06-10T13:23:57;9.15;;;8.30;;
78324;SDS011;67584;51.400;6.692;2023-06-10T13:26:22;8.93;;;8.10;;
78324;SDS011;67584;51.400;6.692;2023-06-10T13:28:48;8.65;;;7.85;;
78324;SDS011;67584;51.400;6.692;2023-06-10T13:31:14;8.75;;;8.05;;
78324;SDS011;67584;51.400;6.692;2023-06-10T13:33:40;8.43;;;7.72;;
78324;SDS011;67584;51.400;6.692;2023-06-10T13:36:05;9.70;;;8.85;;
78324;SDS011;67584;51.400;6.692;2023-06-10T13:38:31;9.02;;;7.85;;
78324;SDS011;67584;51.400;6.692;2023-06-10T13:40:57;8.40;;;7.60;;
78324;SDS011;67584;51.400;6.692;2023-06-10T13:43:23;8.55;;;7.80;;
78324;SDS011;67584;51.400;6.692;2023-06-10T13:45:48;9.40;;;8.57;;
78324;SDS011;67584;51.400;6.692;2023-06-10T13:48:14;9.52;;;8.73;;
78324;SDS011;67584;51.400;6.692;2023-06-10T13:50:39;9.50;;;8.80;;
78324;SDS011;67584;51.400;6.692;2023-06-10T13:53:05;9.85;;;9.00;;
78324;SDS011;67584;51.400;6.692;2023-06-10T13:55:31;10.27;;;7.93;;
78324;SDS011;67584;51.400;6.692;2023-06-10T13:57:57;10.32;;;9.43;;
78324;SDS011;67584;51.400;6.692;2023-06-10T14:00:22;10.02;;;9.25;;
78324;SDS011;67584;51.400;6.692;2023-06-10T14:02:48;9.50;;;8.75;;
78324;SDS011;67584;51.400;6.692;2023-06-10T14:05:13;9.32;;;8.52;;
78324;SDS011;67584;51.400;6.692;2023-06-10T14:07:39;9.63;;;8.85;;
78324;SDS011;67584;51.400;6.692;2023-06-10T14:10:06;9.50;;;8.73;;
78324;SDS011;67584;51.400;6.692;2023-06-10T14:12:34;9.55;;;8.73;;
78324;SDS011;67584;51.400;6.692;2023-06-10T14:15:00;10.32;;;8.48;;
78324;SDS011;67584;51.400;6.692;2023-06-10T14:17:26;9.30;;;8.50;;
78324;SDS011;67584;51.400;6.692;2023-06-10T14:19:51;8.70;;;8.10;;
78324;SDS011;67584;51.400;6.692;2023-06-10T14:22:17;8.65;;;7.88;;
78324;SDS011;67584;51.400;6.692;2023-06-10T14:24:43;8.88;;;8.18;;
78324;SDS011;67584;51.400;6.692;2023-06-10T14:27:08;8.85;;;7.97;;
78324;SDS011;67584;51.400;6.692;2023-06-10T14:29:34;8.68;;;7.97;;
78324;SDS011;67584;51.400;6.692;2023-06-10T14:32:00;8.65;;;8.02;;
78324;SDS011;67584;51.400;6.692;2023-06-10T14:34:26;8.95;;;8.25;;
78324;SDS011;67584;51.400;6.692;2023-06-10T14:36:56;9.25;;;8.55;;
78324;SDS011;67584;51.400;6.692;2023-06-10T14:39:22;8.95;;;8.15;;
78324;SDS011;67584;51.400;6.692;2023-06-10T14:41:47;8.73;;;7.93;;
78324;SDS011;67584;51.400;6.692;2023-06-10T14:44:13;9.07;;;8.25;;
78324;SDS011;67584;51.400;6.692;2023-06-10T14:46:38;9.65;;;8.70;;
78324;SDS011;67584;51.400;6.692;2023-06-10T14:49:05;9.57;;;8.68;;
78324;SDS011;67584;51.400;6.692;2023-06-10T14:51:31;9.55;;;8.65;;
78324;SDS011;67584;51.400;6.692;2023-06-10T14:53:56;9.65;;;9.05;;
78324;SDS011;67584;51.400;6.692;2023-06-10T14:56:23;8.35;;;7.57;;
78324;SDS011;67584;51.400;6.692;2023-06-10T14:58:48;9.05;;;8.15;;
78324;SDS011;67584;51.400;6.692;2023-06-10T15:01:14;8.95;;;8.20;;
78324;SDS011;67584;51.400;6.692;2023-06-10T15:03:40;9.65;;;8.73;;
78324;SDS011;67584;51.400;6.692;2023-06-10T15:06:05;8.95;;;8.15;;
78324;SDS011;67584;51.400;6.692;2023-06-10T15:08:31;8.75;;;7.68;;